CW9464 Weather Reports


Display with metric or nautical units.
time (UTC)temp
F
wind
direction
speed
MPH
gust
MPH
rain 1hr
in
rain 24hr
in
rain mn
in
humidity
%
barometer
mb
20181015213816 81 247 3.0 4.0 0.00 0.00 0.00 49 1010.5
20181015212817 81 270 6.0 10.0 0.00 0.00 0.00 52 1010.5
20181015211816 80 247 2.0 3.0 0.00 0.00 0.00 52 1010.6
20181015210816 80 337 3.0 4.0 0.00 0.00 0.00 56 1010.7
20181015205816 81 270 5.0 8.0 0.00 0.00 0.00 54 1010.8
20181015204816 81 225 3.0 5.0 0.00 0.00 0.00 52 1010.9
20181015203816 81 270 1.0 2.0 0.00 0.00 0.00 53 1011.0
20181015202816 81 225 5.0 6.0 0.00 0.00 0.00 56 1011.1
20181015201816 81 225 4.0 6.0 0.00 0.00 0.00 52 1011.2
20181015200816 81 225 2.0 3.0 0.00 0.00 0.00 50 1011.3
20181015195816 82 225 3.0 5.0 0.00 0.00 0.00 51 1011.5
20181015194816 81 135 2.0 3.0 0.00 0.00 0.00 52 1011.6
20181015193816 82 0.0 1.0 0.00 0.00 0.00 48 1011.8
20181015192816 81 202 5.0 7.0 0.00 0.00 0.00 56 1012.0
20181015191816 80 180 3.0 6.0 0.00 0.00 0.00 56 1012.0
20181015190817 80 247 1.0 1.0 0.00 0.00 0.00 55 1012.0
20181015185816 79 0.0 1.0 0.00 0.00 0.00 58 1012.2
20181015184816 78 247 1.0 1.0 0.00 0.00 0.00 62 1012.4
20181015183816 77 0.0 1.0 0.00 0.00 0.00 61 1012.5
20181015182816 77 315 2.0 4.0 0.00 0.00 0.00 61 1012.6
20181015181816 76 337 1.0 3.0 0.00 0.00 0.00 68 1012.7
20181015180815 75 0.0 1.0 0.00 0.00 0.00 64 1012.8
20181015175816 75 337 3.0 4.0 0.00 0.00 0.00 65 1012.8
20181015174816 74 337 2.0 3.0 0.00 0.00 0.00 66 1012.9
20181015173816 73 337 1.0 2.0 0.00 0.00 0.00 72 1013.0
20181015172816 72 337 1.0 3.0 0.00 0.00 0.00 72 1013.1
20181015171817 71 0.0 0.0 0.00 0.00 0.00 75 1013.0
20181015170815 71 337 2.0 3.0 0.00 0.00 0.00 71 1013.2
20181015165815 71 315 1.0 2.0 0.00 0.00 0.00 73 1013.2
20181015164816 71 315 2.0 4.0 0.00 0.00 0.00 71 1013.2
20181015163815 71 337 3.0 5.0 0.00 0.00 0.00 73 1013.3
20181015162815 71 315 3.0 6.0 0.00 0.00 0.00 73 1013.1
20181015161816 71 0 3.0 4.0 0.00 0.00 0.00 75 1013.2
20181015160816 70 315 1.0 2.0 0.00 0.00 0.00 74 1013.3
20181015155815 69 292 2.0 3.0 0.00 0.00 0.00 75 1013.4
20181015154816 69 337 4.0 9.0 0.00 0.00 0.00 77 1013.3
20181015153816 68 337 6.0 8.0 0.00 0.00 0.00 80 1013.3
20181015152816 67 0 3.0 5.0 0.00 0.00 0.00 83 1013.2
20181015151815 66 337 4.0 8.0 0.00 0.00 0.00 83 1013.1
20181015150815 66 337 4.0 6.0 0.00 0.00 0.00 84 1013.0
20181015145815 65 337 5.0 9.0 0.00 0.00 0.00 86 1013.1
20181015144815 64 0 6.0 9.0 0.00 0.00 0.00 88 1012.9
20181015143816 63 0 3.0 4.0 0.00 0.00 0.00 91 1012.7
20181015142816 62 0 3.0 5.0 0.00 0.00 0.00 91 1012.6
20181015141816 61 337 5.0 9.0 0.00 0.00 0.00 92 1012.3
20181015140815 61 337 5.0 8.0 0.00 0.00 0.00 93 1012.4
20181015135816 60 337 4.0 6.0 0.00 0.00 0.00 93 1012.2
20181015134816 60 0 3.0 4.0 0.00 0.00 0.00 93 1012.2
20181015133816 60 0 1.0 2.0 0.00 0.00 0.00 93 1012.2
20181015132816 60 0 3.0 4.0 0.00 0.00 0.00 93 1012.1
20181015131815 60 337 2.0 3.0 0.00 0.00 0.00 93 1012.1
20181015130816 60 337 3.0 4.0 0.00 0.00 0.00 93 1012.1
20181015125815 60 337 2.0 3.0 0.00 0.00 0.00 92 1011.9
20181015124815 60 337 3.0 5.0 0.00 0.00 0.00 92 1011.9
20181015123815 60 337 5.0 8.0 0.00 0.00 0.00 92 1012.0
20181015122815 60 337 4.0 6.0 0.00 0.00 0.00 93 1011.9
20181015121816 60 337 4.0 6.0 0.00 0.00 0.00 92 1011.9
20181015120816 60 337 4.0 6.0 0.00 0.00 0.00 92 1011.8
20181015115816 60 337 3.0 5.0 0.00 0.00 0.00 92 1011.8
20181015114817 61 337 4.0 5.0 0.00 0.00 0.00 91 1011.7
20181015113816 61 337 4.0 5.0 0.00 0.00 0.00 91 1011.6
20181015112816 61 337 2.0 2.0 0.00 0.00 0.00 90 1011.6
20181015111816 61 337 3.0 5.0 0.00 0.00 0.00 90 1011.7
20181015110816 61 337 4.0 8.0 0.00 0.00 0.00 90 1011.7
20181015105816 61 337 6.0 8.0 0.00 0.00 0.00 90 1011.7
20181015104815 61 337 3.0 5.0 0.00 0.00 0.00 90 1011.6
20181015103815 61 337 3.0 4.0 0.00 0.00 0.00 90 1011.6
20181015102815 61 270 2.0 3.0 0.00 0.00 0.00 90 1011.7
20181015101816 61 0 4.0 6.0 0.00 0.00 0.00 91 1011.7
20181015100816 61 337 3.0 4.0 0.00 0.00 0.00 91 1011.7
20181015095816 61 337 1.0 4.0 0.00 0.00 0.00 91 1011.8
20181015094815 62 315 2.0 3.0 0.00 0.00 0.00 90 1011.9
20181015093815 62 315 2.0 4.0 0.00 0.00 0.00 90 1011.8
20181015092816 62 315 4.0 9.0 0.00 0.00 0.00 89 1011.8
20181015091821 62 337 2.0 3.0 0.00 0.00 0.00 90 1011.9
20181015090816 62 337 4.0 6.0 0.00 0.00 0.00 90 1011.9
20181015085815 62 315 1.0 2.0 0.00 0.00 0.00 90 1012.0
20181015084816 62 315 2.0 3.0 0.00 0.00 0.00 90 1011.8
20181015083816 62 315 4.0 6.0 0.00 0.00 0.00 90 1011.8
20181015082816 63 337 2.0 3.0 0.00 0.00 0.00 89 1011.9
20181015081815 63 337 1.0 2.0 0.00 0.00 0.00 90 1012.0
20181015080815 62 0.0 1.0 0.00 0.00 0.00 90 1012.0
20181015075815 62 0 2.0 3.0 0.00 0.00 0.00 90 1011.7
20181015074815 62 337 4.0 5.0 0.00 0.00 0.00 91 1011.6
20181015073815 63 337 2.0 4.0 0.00 0.00 0.00 91 1011.8
20181015072816 63 337 1.0 2.0 0.00 0.00 0.00 90 1011.8
20181015071815 63 337 3.0 4.0 0.00 0.00 0.00 91 1011.7
20181015070816 62 337 3.0 5.0 0.00 0.00 0.00 91 1011.7
20181015065816 62 337 2.0 3.0 0.00 0.00 0.00 92 1011.7
20181015064816 62 337 2.0 3.0 0.00 0.00 0.00 93 1011.8
20181015063817 62 337 2.0 3.0 0.00 0.00 0.00 93 1011.9
20181015062816 62 337 3.0 3.0 0.00 0.00 0.00 94 1011.8
20181015061816 62 337 1.0 2.0 0.00 0.00 0.00 94 1011.9
20181015060818 62 337 2.0 3.0 0.00 0.00 0.00 94 1011.8
20181015055816 63 337 1.0 2.0 0.00 0.00 0.00 94 1011.8
20181015054816 63 0.0 0.0 0.00 0.00 0.00 94 1011.7
20181015053816 63 0.0 0.0 0.00 0.00 0.00 94 1011.8
20181015052816 63 0.0 0.0 0.00 0.00 0.00 93 1011.8
20181015051816 63 0.0 0.0 0.00 0.00 0.00 93 1011.9
20181015050816 63 0.0 0.0 0.00 0.00 0.00 92 1011.9
20181015045816 63 0.0 0.0 0.00 0.00 0.00 92 1011.8
20181015044816 64 0.0 0.0 0.00 0.00 0.00 92 1011.8
20181015043818 64 0.0 0.0 0.00 0.00 0.00 91 1011.7
20181015042816 64 0.0 0.0 0.00 0.00 0.00 90 1011.8
20181015041816 64 0.0 0.0 0.00 0.00 0.00 90 1011.6
20181015040817 64 0.0 0.0 0.00 0.00 0.00 89 1011.6
20181015035821 64 337 1.0 1.0 0.00 0.00 0.00 89 1011.5
20181015034817 64 337 2.0 3.0 0.00 0.00 0.00 89 1011.4
20181015033816 64 337 2.0 3.0 0.00 0.00 0.00 90 1011.5
20181015032817 64 270 2.0 2.0 0.00 0.00 0.00 90 1011.6
20181015031817 64 270 1.0 2.0 0.00 0.00 0.00 89 1011.7
20181015030817 65 270 1.0 2.0 0.00 0.00 0.00 88 1011.5
20181015025817 65 270 2.0 3.0 0.00 0.00 0.00 88 1011.4
20181015024816 65 270 1.0 1.0 0.00 0.00 0.00 87 1011.4
20181015023816 65 270 1.0 2.0 0.00 0.00 0.00 86 1011.4
20181015022817 66 270 2.0 2.0 0.00 0.00 0.00 85 1011.4
20181015021817 67 270 1.0 2.0 0.00 0.00 0.00 84 1011.3
20181015020818 67 270 2.0 2.0 0.00 0.00 0.00 82 1011.2
20181015015816 67 270 3.0 4.0 0.00 0.00 0.00 79 1011.2
20181015014816 68 270 2.0 3.0 0.00 0.00 0.00 79 1011.1
20181015013816 69 270 3.0 4.0 0.00 0.00 0.00 77 1011.0
20181015012816 70 270 4.0 6.0 0.00 0.00 0.00 76 1011.1
20181015011817 71 270 3.0 4.0 0.00 0.00 0.00 72 1010.9
20181015010817 71 270 3.0 4.0 0.00 0.00 0.00 71 1010.9
20181015005817 72 270 3.0 4.0 0.00 0.00 0.00 67 1010.9
20181015004816 73 270 4.0 7.0 0.00 0.00 0.00 67 1010.8
20181015003816 74 270 4.0 6.0 0.00 0.00 0.00 64 1010.7
20181015002817 74 270 6.0 8.0 0.00 0.00 0.00 62 1010.7
20181015001817 75 270 5.0 7.0 0.00 0.00 0.00 61 1010.7
20181015000816 76 270 4.0 6.0 0.00 0.00 0.00 58 1010.7
20181014235816 78 292 4.0 5.0 0.00 0.00 0.00 55 1010.7
20181014234822 79 270 3.0 4.0 0.00 0.00 0.00 53 1010.8
20181014233816 79 247 4.0 6.0 0.00 0.00 0.00 52 1010.8
20181014232816 80 270 3.0 6.0 0.00 0.00 0.00 53 1010.9
20181014231816 80 270 2.0 2.0 0.00 0.00 0.00 50 1010.8
20181014230816 79 247 6.0 8.0 0.00 0.00 0.00 52 1010.9
20181014225816 79 225 4.0 7.0 0.00 0.00 0.00 53 1011.0
20181014224816 80 0.0 1.0 0.00 0.00 0.00 51 1011.1
20181014223816 80 180 2.0 3.0 0.00 0.00 0.00 54 1011.1
20181014222816 80 270 3.0 4.0 0.00 0.00 0.00 50 1011.0
20181014221816 80 0.0 1.0 0.00 0.00 0.00 52 1011.1
20181014220816 79 202 2.0 4.0 0.00 0.00 0.00 55 1011.1
20181014215816 79 225 1.0 2.0 0.00 0.00 0.00 52 1011.2
20181014214818 79 292 3.0 6.0 0.00 0.00 0.00 54 1011.1